createdAt,value
2022-10-14T00:00:45.039Z,95883.53
2022-10-14T00:05:48.666Z,95885.16
2022-10-14T00:10:52.111Z,95899.97
2022-10-14T00:15:55.440Z,95888.34
2022-10-14T00:20:58.210Z,95890.00
2022-10-14T00:26:01.931Z,95898.88
2022-10-14T00:31:05.382Z,95895.41
2022-10-14T00:36:08.572Z,95890.81
2022-10-14T00:41:12.238Z,95895.13
2022-10-14T00:46:15.538Z,95897.22
2022-10-14T00:51:18.832Z,95888.13
2022-10-14T00:56:22.525Z,95885.44
2022-10-14T01:01:25.757Z,95888.41
2022-10-14T01:06:32.025Z,95882.75
2022-10-14T01:11:35.317Z,95888.13
2022-10-14T01:16:43.667Z,95885.16
2022-10-14T01:21:47.001Z,95878.44
2022-10-14T01:26:50.306Z,95878.16
2022-10-14T01:31:53.666Z,95883.28
2022-10-14T01:36:56.759Z,95877.91
2022-10-14T01:41:59.930Z,95873.63
2022-10-14T01:47:03.141Z,95872.03
2022-10-14T01:52:06.364Z,95872.56
2022-10-14T01:57:09.567Z,95861.81
2022-10-14T02:02:12.385Z,95873.16
2022-10-14T02:07:15.753Z,95871.56
2022-10-14T02:12:18.616Z,95880.13
2022-10-14T02:17:22.000Z,95874.75
2022-10-14T02:22:25.275Z,95880.66
2022-10-14T02:27:28.516Z,95881.22
2022-10-14T02:32:31.233Z,95888.50
2022-10-14T02:37:34.099Z,95886.09
2022-10-14T02:42:36.946Z,95895.50
2022-10-14T02:47:39.775Z,95900.88
2022-10-14T02:52:42.500Z,95898.97
2022-10-14T02:57:45.369Z,95893.88
2022-10-14T03:02:48.452Z,95895.50
2022-10-14T03:07:51.171Z,95886.09
2022-10-14T03:12:53.865Z,95896.28
2022-10-14T03:17:56.574Z,95899.53
2022-10-14T03:22:59.258Z,95897.91
2022-10-14T03:28:01.950Z,95880.72
2022-10-14T03:33:04.709Z,95879.91
2022-10-14T03:38:07.541Z,95884.72
2022-10-14T03:43:10.452Z,95885.81
2022-10-14T03:48:13.255Z,95892.00
2022-10-14T03:53:16.109Z,95880.13
2022-10-14T03:58:18.852Z,95881.75
2022-10-14T04:03:21.573Z,95870.16
2022-10-14T04:08:24.279Z,95881.72
2022-10-14T04:13:27.071Z,95872.00
2022-10-14T04:18:29.985Z,95866.63
2022-10-14T04:23:33.024Z,95859.63
2022-10-14T04:28:41.492Z,95856.38
2022-10-14T04:33:44.294Z,95853.72
2022-10-14T04:38:47.498Z,95859.63
2022-10-14T04:43:50.234Z,95849.16
2022-10-14T04:48:52.925Z,95844.56
2022-10-14T04:53:55.630Z,95837.59
2022-10-14T04:58:58.401Z,95831.66
2022-10-14T05:04:01.258Z,95827.66
2022-10-14T05:09:03.966Z,95824.44
2022-10-14T05:14:16.710Z,95816.66
2022-10-14T05:19:19.418Z,95823.06
2022-10-14T05:24:22.083Z,95818.22
2022-10-14T05:29:24.745Z,95815.50
2022-10-14T05:34:27.489Z,95820.88
2022-10-14T05:39:30.152Z,95820.88
2022-10-14T05:44:33.029Z,95812.22
2022-10-14T05:49:35.678Z,95814.38
2022-10-14T05:54:38.356Z,95812.19
2022-10-14T05:59:41.126Z,95807.31
2022-10-14T06:04:44.038Z,95804.09
2022-10-14T06:09:47.253Z,95809.44
2022-10-14T06:14:50.106Z,95805.63
2022-10-14T06:19:52.877Z,95799.88
2022-10-14T06:24:57.487Z,95809.00
2022-10-14T06:30:03.179Z,95798.69
2022-10-14T06:35:05.877Z,95797.78
2022-10-14T06:40:09.334Z,95797.16
2022-10-14T06:45:12.537Z,95814.97
2022-10-14T06:50:15.756Z,95806.69
2022-10-14T06:55:18.952Z,95804.16
2022-10-14T07:00:22.162Z,95802.41
2022-10-14T07:05:25.482Z,95809.38
2022-10-14T07:10:38.934Z,95796.34
2022-10-14T07:15:42.252Z,95790.72
2022-10-14T07:20:50.974Z,95785.13
2022-10-14T07:25:55.218Z,95777.34
2022-10-14T07:31:00.912Z,95777.63
2022-10-14T07:36:04.289Z,95779.84
2022-10-14T07:41:07.475Z,95777.84
2022-10-14T07:46:12.572Z,95779.94
2022-10-14T07:51:15.784Z,95780.72
2022-10-14T07:56:19.343Z,95780.28
2022-10-14T08:01:24.362Z,95771.88
2022-10-14T08:06:27.653Z,95773.81
2022-10-14T08:11:30.845Z,95773.19
2022-10-14T08:16:34.014Z,95775.94
2022-10-14T08:21:37.761Z,95767.84
2022-10-14T08:26:51.041Z,95757.34
2022-10-14T08:31:55.434Z,95747.41
2022-10-14T08:36:58.571Z,95751.91
2022-10-14T08:42:01.751Z,95751.09
2022-10-14T08:47:05.096Z,95753.44
2022-10-14T08:52:08.521Z,95738.44
2022-10-14T08:57:12.367Z,95732.66
2022-10-14T09:02:16.338Z,95733.00
2022-10-14T09:07:19.541Z,95735.09
2022-10-14T09:12:22.992Z,95729.19
2022-10-14T09:17:26.285Z,95732.25
2022-10-14T09:22:29.426Z,95722.56
2022-10-14T09:27:34.151Z,95711.28
2022-10-14T09:32:37.829Z,95712.03
2022-10-14T09:37:42.205Z,95714.44
2022-10-14T09:42:44.962Z,95710.47
2022-10-14T09:47:48.257Z,95699.09
2022-10-14T09:52:52.349Z,95695.38
2022-10-14T09:57:55.069Z,95693.41
2022-10-14T10:02:58.338Z,95700.66
2022-10-14T10:08:01.895Z,95694.94
2022-10-14T10:13:05.971Z,95690.63
2022-10-14T10:18:08.757Z,95693.22
2022-10-14T10:23:13.056Z,95685.75
2022-10-14T10:28:16.284Z,95688.88
2022-10-14T10:33:19.072Z,95667.97
2022-10-14T10:38:22.316Z,95668.28
2022-10-14T10:43:25.650Z,95660.41
2022-10-14T10:48:28.873Z,95645.13
2022-10-14T10:53:32.197Z,95648.53
2022-10-14T10:58:35.517Z,95651.06
2022-10-14T11:03:41.252Z,95647.72
2022-10-14T11:09:06.905Z,95635.91
2022-10-14T11:14:10.151Z,95635.13
2022-10-14T11:19:14.608Z,95628.09
2022-10-14T11:24:17.626Z,95616.09
2022-10-14T11:29:20.867Z,95614.13
2022-10-14T11:34:23.626Z,95592.44
2022-10-14T11:39:35.584Z,95592.09
2022-10-14T11:44:39.181Z,95572.44
2022-10-14T11:49:42.357Z,95576.72
2022-10-14T11:54:45.505Z,95569.00
2022-10-14T11:59:48.712Z,95567.06
2022-10-14T12:04:51.911Z,95566.03
2022-10-14T12:09:57.436Z,95566.59
2022-10-14T12:15:03.225Z,95560.97
2022-10-14T12:20:06.535Z,95560.94
2022-10-14T12:25:09.730Z,95541.84
2022-10-14T12:30:14.434Z,95536.69
2022-10-14T12:35:20.897Z,95528.75
2022-10-14T12:40:24.829Z,95525.44
2022-10-14T12:45:28.074Z,95528.78
2022-10-14T12:50:31.344Z,95526.50
2022-10-14T12:55:34.589Z,95514.69
2022-10-14T13:00:37.825Z,95513.00
2022-10-14T13:05:41.081Z,95511.00
2022-10-14T13:10:48.612Z,95518.69
2022-10-14T13:15:51.845Z,95510.59
2022-10-14T13:20:55.163Z,95509.94
2022-10-14T13:25:58.364Z,95502.03
2022-10-14T13:31:01.629Z,95500.78
2022-10-14T13:36:05.611Z,95501.09
2022-10-14T13:41:08.804Z,95501.22
2022-10-14T13:46:11.986Z,95508.72
2022-10-14T13:51:31.913Z,95518.47
2022-10-14T13:56:38.492Z,95517.81
2022-10-14T14:01:41.775Z,95519.97
2022-10-14T14:07:00.396Z,95539.66
2022-10-14T14:12:08.276Z,95538.38
2022-10-14T14:17:11.473Z,95566.28
2022-10-14T14:22:14.681Z,95582.75
2022-10-14T14:27:17.873Z,95595.50
2022-10-14T14:32:21.074Z,95597.50
2022-10-14T14:37:43.832Z,95605.41
2022-10-14T14:42:48.304Z,95594.97
2022-10-14T14:47:51.529Z,95600.56
2022-10-14T14:52:54.879Z,95591.78
2022-10-14T14:57:58.111Z,95573.94
2022-10-14T15:03:03.783Z,95580.72
2022-10-14T15:08:07.381Z,95569.69
2022-10-14T15:13:11.353Z,95568.66
2022-10-14T15:18:14.876Z,95570.75
2022-10-14T15:23:18.041Z,95569.56
2022-10-14T15:28:21.363Z,95559.25
2022-10-14T15:33:24.561Z,95543.56
2022-10-14T15:38:28.905Z,95540.94
2022-10-14T15:43:33.847Z,95534.13
2022-10-14T15:48:37.380Z,95528.94
2022-10-14T15:53:40.554Z,95536.75
2022-10-14T15:58:43.747Z,95518.63
2022-10-14T16:03:46.973Z,95514.72
2022-10-14T16:08:50.168Z,95512.72
2022-10-14T16:13:53.888Z,95509.63
2022-10-14T16:18:57.240Z,95512.50
2022-10-14T16:24:01.967Z,95518.81
2022-10-14T16:29:05.195Z,95510.81
2022-10-14T16:34:08.815Z,95506.78
2022-10-14T16:39:12.039Z,95514.91
2022-10-14T16:44:25.491Z,95512.09
2022-10-14T16:49:28.661Z,95528.06
2022-10-14T16:54:32.307Z,95525.78
2022-10-14T16:59:35.470Z,95526.50
2022-10-14T17:04:39.297Z,95521.31
2022-10-14T17:09:42.561Z,95516.50
2022-10-14T17:14:46.251Z,95519.88
2022-10-14T17:19:50.816Z,95525.84
2022-10-14T17:24:54.461Z,95521.97
2022-10-14T17:29:58.156Z,95530.19
2022-10-14T17:35:01.463Z,95523.59
2022-10-14T17:40:04.660Z,95520.78
2022-10-14T17:45:08.861Z,95525.56
2022-10-14T17:50:12.748Z,95522.47
2022-10-14T18:00:20.232Z,95525.84
2022-10-14T18:05:24.553Z,95521.59
2022-10-14T18:10:27.838Z,95506.88
2022-10-14T18:15:31.272Z,95513.88
2022-10-14T18:20:35.575Z,95506.88
2022-10-14T18:25:38.814Z,95524.19
2022-10-14T18:30:41.987Z,95518.59
2022-10-14T18:35:47.971Z,95509.66
2022-10-14T18:40:52.148Z,95513.75
2022-10-14T18:45:55.369Z,95509.66
2022-10-14T18:50:58.534Z,95513.38
2022-10-14T18:56:01.933Z,95497.69
2022-10-14T19:01:05.404Z,95494.09
2022-10-14T19:06:08.626Z,95505.22
2022-10-14T19:11:11.819Z,95497.91
2022-10-14T19:16:15.088Z,95499.81
2022-10-14T19:21:29.966Z,95498.78
2022-10-14T19:26:33.367Z,95499.59
2022-10-14T19:31:36.967Z,95499.59
2022-10-14T19:36:40.309Z,95485.19
2022-10-14T19:41:44.942Z,95473.66
2022-10-14T19:46:48.584Z,95468.78
2022-10-14T19:51:51.867Z,95464.41
2022-10-14T19:56:55.134Z,95458.63
2022-10-14T20:01:58.499Z,95457.31
2022-10-14T20:07:01.904Z,95456.22
2022-10-14T20:12:05.112Z,95454.81
2022-10-14T20:17:08.735Z,95463.22
2022-10-14T20:22:12.198Z,95457.13
2022-10-14T20:27:15.939Z,95461.41
2022-10-14T20:32:19.148Z,95451.72
2022-10-14T20:37:29.344Z,95445.91
2022-10-14T20:42:32.779Z,95460.81
2022-10-14T20:47:36.036Z,95453.53
2022-10-14T20:52:39.433Z,95440.03
2022-10-14T20:57:42.750Z,95427.03
2022-10-14T21:02:46.123Z,95427.41
2022-10-14T21:07:49.366Z,95416.22
2022-10-14T21:12:52.761Z,95415.84
2022-10-14T21:17:56.084Z,95412.97
2022-10-14T21:22:59.561Z,95404.25
2022-10-14T21:28:03.781Z,95400.09
2022-10-14T21:33:06.979Z,95382.28
2022-10-14T21:38:14.316Z,95380.91
2022-10-14T21:43:17.553Z,95369.00
2022-10-14T21:48:20.885Z,95366.41
2022-10-14T21:53:24.328Z,95363.00
2022-10-14T21:58:27.567Z,95357.91
2022-10-14T22:03:30.767Z,95353.63
2022-10-14T22:08:33.994Z,95349.78
2022-10-14T22:13:37.202Z,95352.84
2022-10-14T22:18:43.579Z,95355.75
2022-10-14T22:23:47.123Z,95350.13
2022-10-14T22:28:51.726Z,95353.50
2022-10-14T22:33:54.979Z,95348.50
2022-10-14T22:38:58.982Z,95340.78
2022-10-14T22:44:02.207Z,95336.50
2022-10-14T22:49:05.653Z,95338.47
2022-10-14T22:54:08.918Z,95335.88
2022-10-14T22:59:12.267Z,95324.06
2022-10-14T23:04:15.534Z,95319.78
2022-10-14T23:09:18.949Z,95316.88
2022-10-14T23:14:22.426Z,95314.19
2022-10-14T23:19:26.244Z,95312.00
2022-10-14T23:24:29.896Z,95312.56
2022-10-14T23:29:33.566Z,95313.16
2022-10-14T23:34:37.401Z,95302.97
2022-10-14T23:39:40.696Z,95298.97
2022-10-14T23:44:44.154Z,95304.16
2022-10-14T23:49:47.350Z,95292.00
2022-10-14T23:54:50.743Z,95282.38
2022-10-14T23:59:53.961Z,95281.00
